To NAV CANADA Home Page Login to a new session Search on AWWS site Feedback and Comments Disclaimer Vers la page française équivalente Tips FAQ What's new on the site To the Forecasts and Observations / NOTAM section To "File a Flight Plan" website Publications and other links Update of the User's profile FIC Telephone Numbers My Weather Data Folder Route Weather Data Regional Weather Data Local Weather Data To the Forecasts and Observations / NOTAM section
Request Generated 02/09/2016 at 05:17:51 UTC . Weather information available at that time is displayed.

METAR/TAF

RANKIN INLET/NU    

METAR CYRT 090500Z 36008KT 15SM IC DRSN SKC M35/M39 A3034 RMK SLP282
DENSITY ALT MISG=
METAR CYRT 090400Z 35013KT 15SM IC DRSN SKC M35/M39 A3034 RMK SLP281
DENSITY ALT MISG=
METAR CYRT 090300Z 35018KT 15SM IC DRSN SKC M34/M38 A3033 RMK SLP278
DENSITY ALT MISG=

TAF CYRT 082338Z 0900/0912 34012KT P6SM IC SCT030 TEMPO 0900/0904 5SM
-SN BLSN BKN020
BECMG 0902/0904 34018KT
FM090400 34018KT P6SM IC SCT030 TEMPO 0904/0912 21/2SM -SN BLSN
BKN020
RMK NXT FCST BY 090600Z=
Your time UTC time
Weather data provided by Environment Canada and NAV CANADA